createdAt,value
2022-10-09T00:01:17.557Z,0.95
2022-10-09T00:03:46.843Z,0.90
2022-10-09T00:06:21.121Z,1.23
2022-10-09T00:08:48.153Z,1.20
2022-10-09T00:11:22.305Z,1.10
2022-10-09T00:13:50.290Z,1.85
2022-10-09T00:16:19.122Z,1.20
2022-10-09T00:18:46.295Z,1.30
2022-10-09T00:21:22.330Z,1.33
2022-10-09T00:23:50.253Z,1.95
2022-10-09T00:26:18.012Z,1.65
2022-10-09T00:28:45.309Z,1.52
2022-10-09T00:31:13.258Z,1.63
2022-10-09T00:33:40.651Z,1.40
2022-10-09T00:36:10.818Z,1.70
2022-10-09T00:38:37.994Z,1.38
2022-10-09T00:41:05.106Z,1.60
2022-10-09T00:43:48.679Z,1.30
2022-10-09T00:46:34.744Z,1.45
2022-10-09T00:49:04.612Z,1.65
2022-10-09T00:51:32.945Z,2.47
2022-10-09T00:54:01.839Z,1.67
2022-10-09T00:56:28.929Z,1.50
2022-10-09T00:58:58.063Z,1.40
2022-10-09T01:01:25.040Z,1.50
2022-10-09T01:03:52.056Z,1.60
2022-10-09T01:06:23.510Z,1.58
2022-10-09T01:09:21.092Z,1.75
2022-10-09T01:11:47.967Z,1.52
2022-10-09T01:14:24.664Z,1.60
2022-10-09T01:17:07.679Z,1.58
2022-10-09T01:19:46.472Z,1.50
2022-10-09T01:22:36.389Z,1.35
2022-10-09T01:25:11.066Z,1.60
2022-10-09T01:27:38.855Z,2.05
2022-10-09T01:30:09.726Z,1.38
2022-10-09T01:32:47.126Z,1.30
2022-10-09T01:35:15.691Z,1.50
2022-10-09T01:37:45.901Z,1.50
2022-10-09T01:40:16.072Z,1.38
2022-10-09T01:42:43.843Z,1.73
2022-10-09T01:45:11.317Z,1.38
2022-10-09T01:47:38.571Z,1.30
2022-10-09T01:50:27.662Z,1.50
2022-10-09T01:53:00.264Z,1.55
2022-10-09T01:55:30.382Z,1.38
2022-10-09T01:58:03.004Z,1.60
2022-10-09T02:00:33.668Z,1.73
2022-10-09T02:03:02.705Z,1.63
2022-10-09T02:05:31.422Z,2.03
2022-10-09T02:07:59.551Z,1.45
2022-10-09T02:10:26.689Z,1.73
2022-10-09T02:12:59.282Z,2.13
2022-10-09T02:15:35.392Z,1.52
2022-10-09T02:18:09.265Z,2.03
2022-10-09T02:20:39.737Z,1.80
2022-10-09T02:23:08.704Z,1.50
2022-10-09T02:25:36.142Z,1.85
2022-10-09T02:28:04.428Z,1.85
2022-10-09T02:30:44.312Z,1.40
2022-10-09T02:33:11.294Z,1.70
2022-10-09T02:35:39.166Z,1.45
2022-10-09T02:38:06.080Z,1.60
2022-10-09T02:40:32.984Z,2.00
2022-10-09T02:42:59.870Z,1.40
2022-10-09T02:45:26.751Z,1.67
2022-10-09T02:47:53.727Z,2.17
2022-10-09T02:50:20.684Z,1.67
2022-10-09T02:52:47.859Z,1.50
2022-10-09T02:55:14.984Z,1.95
2022-10-09T02:57:42.004Z,1.67
2022-10-09T03:00:09.503Z,1.55
2022-10-09T03:02:36.488Z,1.63
2022-10-09T03:05:03.612Z,2.20
2022-10-09T03:07:30.619Z,1.98
2022-10-09T03:09:58.486Z,1.83
2022-10-09T03:12:25.350Z,1.95
2022-10-09T03:14:52.238Z,2.20
2022-10-09T03:17:19.123Z,2.17
2022-10-09T03:19:46.014Z,2.08
2022-10-09T03:22:13.013Z,2.13
2022-10-09T03:24:39.915Z,1.67
2022-10-09T03:27:06.784Z,2.10
2022-10-09T03:29:33.778Z,2.00
2022-10-09T03:32:00.668Z,2.20
2022-10-09T03:34:27.615Z,2.33
2022-10-09T03:36:54.532Z,1.90
2022-10-09T03:39:21.551Z,3.15
2022-10-09T03:41:48.457Z,1.90
2022-10-09T03:44:15.362Z,2.13
2022-10-09T03:46:42.505Z,2.25
2022-10-09T03:49:09.471Z,2.92
2022-10-09T03:51:36.413Z,3.60
2022-10-09T03:54:03.299Z,3.17
2022-10-09T03:56:30.337Z,2.88
2022-10-09T03:58:57.198Z,2.40
2022-10-09T04:01:24.233Z,2.85
2022-10-09T04:03:51.140Z,2.88
2022-10-09T04:06:18.032Z,3.58
2022-10-09T04:08:45.033Z,2.42
2022-10-09T04:11:11.914Z,2.80
2022-10-09T04:13:38.828Z,3.10
2022-10-09T04:16:06.057Z,2.75
2022-10-09T04:18:33.040Z,2.92
2022-10-09T04:20:59.952Z,2.70
2022-10-09T04:23:27.994Z,3.17
2022-10-09T04:25:56.410Z,2.80
2022-10-09T04:28:23.966Z,2.67
2022-10-09T04:30:51.000Z,3.00
2022-10-09T04:33:18.345Z,2.50
2022-10-09T04:35:47.071Z,3.50
2022-10-09T04:38:13.995Z,2.60
2022-10-09T04:40:41.666Z,2.42
2022-10-09T04:43:08.835Z,2.83
2022-10-09T04:45:40.093Z,2.80
2022-10-09T04:48:07.133Z,2.55
2022-10-09T04:50:34.058Z,2.60
2022-10-09T04:53:01.003Z,3.47
2022-10-09T04:55:27.898Z,2.55
2022-10-09T04:57:54.874Z,2.97
2022-10-09T05:00:21.786Z,2.35
2022-10-09T05:02:48.894Z,2.30
2022-10-09T05:05:15.963Z,2.35
2022-10-09T05:07:42.887Z,2.42
2022-10-09T05:10:09.976Z,2.08
2022-10-09T05:12:36.906Z,2.80
2022-10-09T05:15:04.958Z,2.40
2022-10-09T05:17:32.039Z,2.17
2022-10-09T05:19:59.009Z,2.42
2022-10-09T05:22:25.989Z,2.40
2022-10-09T05:24:52.940Z,2.10
2022-10-09T05:27:19.859Z,2.42
2022-10-09T05:29:46.812Z,2.60
2022-10-09T05:32:14.768Z,2.00
2022-10-09T05:34:41.691Z,2.35
2022-10-09T05:37:08.626Z,2.75
2022-10-09T05:39:39.539Z,2.50
2022-10-09T05:42:06.460Z,3.47
2022-10-09T05:44:33.513Z,2.40
2022-10-09T05:47:00.436Z,3.53
2022-10-09T05:49:27.368Z,2.60
2022-10-09T05:51:55.980Z,2.72
2022-10-09T05:54:23.030Z,2.60
2022-10-09T05:56:49.981Z,2.60
2022-10-09T05:59:21.995Z,2.60
2022-10-09T06:01:51.318Z,2.72
2022-10-09T06:04:21.600Z,3.78
2022-10-09T06:06:49.072Z,2.38
2022-10-09T06:09:18.234Z,3.03
2022-10-09T06:11:45.618Z,2.72
2022-10-09T06:14:13.662Z,2.22
2022-10-09T06:16:42.941Z,2.97
2022-10-09T06:19:14.649Z,2.72
2022-10-09T06:21:42.014Z,2.33
2022-10-09T06:24:09.010Z,2.75
2022-10-09T06:26:35.895Z,2.08
2022-10-09T06:29:03.099Z,2.50
2022-10-09T06:31:32.400Z,2.40
2022-10-09T06:34:01.071Z,2.00
2022-10-09T06:36:30.852Z,2.25
2022-10-09T06:39:00.289Z,2.50
2022-10-09T06:41:28.570Z,1.88
2022-10-09T06:43:58.111Z,2.47
2022-10-09T06:46:27.583Z,1.90
2022-10-09T06:48:54.637Z,2.15
2022-10-09T06:51:24.467Z,3.20
2022-10-09T06:53:56.348Z,1.73
2022-10-09T06:56:24.767Z,1.73
2022-10-09T06:58:51.920Z,2.47
2022-10-09T07:01:24.794Z,1.77
2022-10-09T07:03:56.887Z,2.53
2022-10-09T07:06:29.323Z,2.08
2022-10-09T07:09:01.799Z,1.67
2022-10-09T07:11:32.542Z,1.90
2022-10-09T07:14:01.921Z,1.80
2022-10-09T07:16:37.311Z,1.80
2022-10-09T07:19:07.698Z,1.67
2022-10-09T07:21:35.550Z,1.58
2022-10-09T07:24:03.965Z,1.73
2022-10-09T07:26:32.856Z,1.75
2022-10-09T07:29:00.175Z,3.88
2022-10-09T07:31:27.359Z,1.50
2022-10-09T07:33:56.954Z,1.45
2022-10-09T07:36:24.419Z,2.03
2022-10-09T07:38:56.217Z,1.63
2022-10-09T07:41:26.573Z,1.70
2022-10-09T07:43:53.715Z,2.03
2022-10-09T07:46:22.715Z,1.45
2022-10-09T07:48:50.905Z,1.38
2022-10-09T07:51:23.692Z,1.60
2022-10-09T07:53:52.578Z,1.58
2022-10-09T07:56:26.078Z,1.08
2022-10-09T07:58:55.279Z,1.77
2022-10-09T08:01:23.250Z,2.00
2022-10-09T08:03:50.579Z,1.77
2022-10-09T08:06:19.005Z,1.27
2022-10-09T08:08:49.797Z,1.20
2022-10-09T08:11:18.103Z,1.52
2022-10-09T08:13:46.288Z,1.65
2022-10-09T08:16:13.792Z,1.60
2022-10-09T08:18:40.984Z,1.65
2022-10-09T08:21:11.283Z,2.22
2022-10-09T08:23:38.224Z,1.63
2022-10-09T08:26:05.533Z,2.03
2022-10-09T08:28:32.571Z,1.40
2022-10-09T08:30:59.548Z,1.50
2022-10-09T08:33:27.104Z,1.42
2022-10-09T08:35:54.495Z,1.30
2022-10-09T08:38:45.516Z,1.45
2022-10-09T08:41:26.471Z,1.10
2022-10-09T08:44:01.318Z,1.30
2022-10-09T08:46:42.962Z,1.92
2022-10-09T08:49:21.629Z,1.30
2022-10-09T08:51:48.844Z,1.45
2022-10-09T08:54:32.903Z,1.35
2022-10-09T08:57:04.110Z,1.55
2022-10-09T08:59:32.162Z,1.33
2022-10-09T09:02:22.980Z,1.60
2022-10-09T09:05:21.536Z,1.15
2022-10-09T09:07:59.096Z,1.00
2022-10-09T09:10:39.846Z,1.30
2022-10-09T09:13:45.062Z,1.30
2022-10-09T09:16:25.716Z,1.40
2022-10-09T09:19:16.210Z,1.10
2022-10-09T09:21:51.411Z,1.52
2022-10-09T09:24:42.505Z,1.10
2022-10-09T09:27:19.414Z,0.88
2022-10-09T09:30:13.487Z,1.50
2022-10-09T09:33:02.419Z,1.10
2022-10-09T09:36:00.869Z,1.20
2022-10-09T09:38:27.810Z,1.10
2022-10-09T09:40:54.803Z,1.08
2022-10-09T09:43:24.153Z,1.45
2022-10-09T09:45:56.466Z,1.00
2022-10-09T09:48:37.215Z,1.35
2022-10-09T09:51:29.135Z,1.00
2022-10-09T09:53:59.375Z,1.42
2022-10-09T09:57:13.988Z,2.28
2022-10-09T09:59:43.327Z,1.10
2022-10-09T10:02:22.677Z,1.45
2022-10-09T10:04:57.607Z,1.00
2022-10-09T10:07:38.893Z,1.20
2022-10-09T10:10:07.509Z,1.10
2022-10-09T10:12:39.557Z,0.90
2022-10-09T10:15:06.987Z,1.33
2022-10-09T10:17:36.981Z,1.00
2022-10-09T10:20:06.741Z,1.15
2022-10-09T10:22:34.318Z,1.30
2022-10-09T10:25:01.455Z,1.20
2022-10-09T10:27:40.591Z,1.00
2022-10-09T10:30:13.152Z,1.10
2022-10-09T10:33:00.345Z,1.10
2022-10-09T10:35:34.793Z,1.30
2022-10-09T10:38:23.150Z,0.88
2022-10-09T10:40:56.833Z,1.15
2022-10-09T10:43:33.628Z,1.33
2022-10-09T10:46:22.222Z,1.00
2022-10-09T10:48:50.196Z,1.10
2022-10-09T10:51:38.308Z,1.13
2022-10-09T10:54:35.551Z,0.98
2022-10-09T10:58:04.289Z,1.20
2022-10-09T11:00:39.373Z,1.00
2022-10-09T11:03:26.530Z,1.05
2022-10-09T11:06:20.850Z,1.20
2022-10-09T11:08:55.601Z,1.27
2022-10-09T11:11:40.248Z,0.90
2022-10-09T11:17:19.665Z,1.25
2022-10-09T11:20:12.757Z,1.20
2022-10-09T11:22:49.701Z,1.00
2022-10-09T11:25:54.982Z,0.95
2022-10-09T11:28:41.022Z,1.08
2022-10-09T11:31:19.894Z,0.90
2022-10-09T11:33:51.257Z,1.13
2022-10-09T11:36:21.139Z,1.20
2022-10-09T11:39:05.448Z,1.60
2022-10-09T11:41:34.671Z,1.77
2022-10-09T11:44:11.279Z,1.08
2022-10-09T11:46:50.254Z,0.95
2022-10-09T11:49:30.319Z,1.02
2022-10-09T11:52:09.518Z,0.80
2022-10-09T11:54:36.504Z,1.00
2022-10-09T11:57:06.425Z,1.38
2022-10-09T11:59:36.978Z,2.78
2022-10-09T12:02:24.270Z,1.00
2022-10-09T12:04:55.401Z,1.50
2022-10-09T12:07:30.539Z,2.10
2022-10-09T12:10:20.347Z,1.45
2022-10-09T12:13:00.485Z,1.20
2022-10-09T12:15:47.684Z,1.50
2022-10-09T12:18:45.674Z,1.20
2022-10-09T12:21:25.458Z,1.25
2022-10-09T12:23:53.031Z,1.20
2022-10-09T12:26:22.083Z,1.05
2022-10-09T12:28:52.372Z,1.20
2022-10-09T12:31:28.058Z,1.13
2022-10-09T12:34:11.943Z,0.98
2022-10-09T12:36:38.846Z,0.95
2022-10-09T12:39:20.143Z,1.52
2022-10-09T12:41:50.733Z,1.08
2022-10-09T12:44:34.859Z,0.90
2022-10-09T12:47:08.269Z,0.77
2022-10-09T12:49:35.889Z,1.03
2022-10-09T12:52:03.193Z,0.98
2022-10-09T12:54:31.321Z,1.00
2022-10-09T12:57:00.719Z,1.35
2022-10-09T12:59:28.792Z,0.77
2022-10-09T13:02:00.292Z,0.80
2022-10-09T13:04:31.192Z,1.00
2022-10-09T13:07:00.511Z,0.80
2022-10-09T13:09:34.279Z,0.98
2022-10-09T13:12:04.870Z,1.10
2022-10-09T13:14:58.036Z,0.90
2022-10-09T13:17:35.631Z,0.88
2022-10-09T13:20:14.920Z,1.23
2022-10-09T13:22:52.703Z,0.85
2022-10-09T13:25:19.797Z,1.27
2022-10-09T13:27:47.158Z,1.25
2022-10-09T13:30:14.377Z,0.98
2022-10-09T13:32:41.300Z,1.02
2022-10-09T13:35:08.619Z,0.88
2022-10-09T13:37:35.623Z,1.48
2022-10-09T13:40:02.530Z,1.00
2022-10-09T13:42:34.035Z,1.13
2022-10-09T13:45:00.923Z,1.20
2022-10-09T13:47:27.854Z,1.13
2022-10-09T13:49:54.794Z,1.08
2022-10-09T13:52:21.712Z,0.93
2022-10-09T13:54:48.789Z,1.25
2022-10-09T13:57:15.850Z,1.15
2022-10-09T13:59:42.798Z,1.05
2022-10-09T14:02:11.037Z,1.08
2022-10-09T14:04:38.032Z,1.10
2022-10-09T14:07:04.949Z,1.60
2022-10-09T14:09:31.871Z,1.20
2022-10-09T14:11:59.022Z,1.25
2022-10-09T14:14:25.969Z,1.30
2022-10-09T14:16:52.871Z,1.08
2022-10-09T14:19:19.813Z,1.00
2022-10-09T14:21:47.699Z,0.98
2022-10-09T14:24:15.589Z,0.90
2022-10-09T14:26:46.267Z,1.20
2022-10-09T14:29:15.338Z,1.30
2022-10-09T14:31:42.359Z,1.13
2022-10-09T14:34:12.238Z,1.10
2022-10-09T14:36:39.229Z,1.00
2022-10-09T14:39:06.118Z,1.23
2022-10-09T14:41:37.495Z,1.10
2022-10-09T14:44:05.090Z,1.20
2022-10-09T14:46:37.620Z,1.10
2022-10-09T14:49:08.161Z,1.20
2022-10-09T14:51:39.945Z,1.13
2022-10-09T14:54:07.665Z,1.20
2022-10-09T14:56:36.368Z,0.95
2022-10-09T14:59:06.087Z,1.45
2022-10-09T15:01:34.115Z,1.38
2022-10-09T15:04:01.725Z,1.17
2022-10-09T15:06:29.056Z,1.20
2022-10-09T15:09:03.194Z,1.42
2022-10-09T15:11:33.519Z,1.15
2022-10-09T15:14:00.459Z,1.83
2022-10-09T15:16:27.481Z,1.20
2022-10-09T15:18:55.494Z,1.25
2022-10-09T15:21:28.461Z,1.30
2022-10-09T15:23:57.357Z,1.13
2022-10-09T15:26:29.011Z,1.35
2022-10-09T15:28:56.727Z,1.23
2022-10-09T15:31:38.209Z,1.23
2022-10-09T15:34:07.592Z,1.63
2022-10-09T15:36:36.852Z,1.30
2022-10-09T15:39:06.239Z,2.00
2022-10-09T15:41:36.160Z,1.48
2022-10-09T15:44:12.788Z,1.95
2022-10-09T15:46:39.687Z,1.35
2022-10-09T15:49:08.112Z,1.50
2022-10-09T15:51:35.122Z,1.08
2022-10-09T15:54:02.332Z,1.50
2022-10-09T15:56:30.026Z,1.20
2022-10-09T15:58:58.197Z,1.67
2022-10-09T16:01:25.271Z,1.45
2022-10-09T16:03:52.777Z,1.70
2022-10-09T16:06:21.906Z,1.33
2022-10-09T16:08:49.151Z,1.25
2022-10-09T16:11:20.405Z,1.40
2022-10-09T16:13:50.621Z,1.55
2022-10-09T16:16:20.427Z,1.30
2022-10-09T16:18:48.219Z,1.60
2022-10-09T16:21:19.131Z,1.73
2022-10-09T16:23:46.319Z,1.60
2022-10-09T16:26:16.100Z,1.83
2022-10-09T16:28:43.519Z,1.70
2022-10-09T16:31:31.801Z,1.67
2022-10-09T16:33:58.999Z,1.65
2022-10-09T16:36:25.982Z,1.77
2022-10-09T16:38:53.113Z,1.20
2022-10-09T16:41:21.761Z,2.05
2022-10-09T16:43:51.152Z,2.00
2022-10-09T16:46:31.658Z,2.95
2022-10-09T16:48:59.576Z,1.70
2022-10-09T16:51:32.699Z,1.70
2022-10-09T16:54:02.325Z,2.35
2022-10-09T16:56:33.351Z,3.25
2022-10-09T16:59:02.044Z,1.88
2022-10-09T17:01:29.311Z,2.85
2022-10-09T17:03:58.100Z,2.13
2022-10-09T17:06:26.677Z,2.25
2022-10-09T17:08:55.712Z,4.15
2022-10-09T17:11:23.477Z,3.55
2022-10-09T17:13:50.692Z,2.85
2022-10-09T17:16:21.794Z,3.42
2022-10-09T17:18:49.705Z,3.22
2022-10-09T17:21:18.715Z,3.35
2022-10-09T17:23:46.988Z,2.85
2022-10-09T17:26:19.639Z,2.70
2022-10-09T17:28:48.243Z,2.88
2022-10-09T17:31:21.597Z,2.63
2022-10-09T17:33:50.277Z,3.20
2022-10-09T17:36:20.101Z,2.65
2022-10-09T17:38:48.148Z,3.22
2022-10-09T17:41:17.035Z,2.80
2022-10-09T17:43:44.258Z,3.20
2022-10-09T17:46:13.312Z,3.17
2022-10-09T17:48:44.549Z,3.17
2022-10-09T17:51:16.542Z,3.28
2022-10-09T17:53:44.067Z,3.38
2022-10-09T17:59:57.799Z,3.28
2022-10-09T18:02:24.724Z,4.05
2022-10-09T18:04:52.195Z,3.40
2022-10-09T18:07:20.276Z,4.05
2022-10-09T18:09:49.541Z,5.32
2022-10-09T18:12:17.548Z,4.40
2022-10-09T18:18:26.119Z,3.45
2022-10-09T18:20:53.032Z,3.90
2022-10-09T18:23:22.655Z,4.45
2022-10-09T18:25:49.926Z,4.45
2022-10-09T18:28:16.962Z,4.50
2022-10-09T18:30:46.357Z,4.00
2022-10-09T18:33:13.676Z,4.22
2022-10-09T18:35:40.791Z,4.95
2022-10-09T18:38:10.248Z,5.72
2022-10-09T18:40:45.612Z,5.95
2022-10-09T18:43:13.215Z,5.82
2022-10-09T18:45:45.506Z,5.57
2022-10-09T18:48:12.621Z,4.85
2022-10-09T18:50:39.880Z,5.95
2022-10-09T18:53:07.632Z,5.22
2022-10-09T18:55:34.851Z,4.57
2022-10-09T18:58:03.686Z,6.40
2022-10-09T19:00:31.406Z,6.43
2022-10-09T19:02:58.542Z,6.55
2022-10-09T19:05:25.707Z,6.15
2022-10-09T19:07:52.909Z,6.20
2022-10-09T19:10:20.030Z,7.40
2022-10-09T19:12:47.442Z,6.60
2022-10-09T19:15:14.524Z,7.10
2022-10-09T19:17:41.473Z,7.47
2022-10-09T19:20:09.234Z,12.82
2022-10-09T19:22:36.181Z,17.52
2022-10-09T19:25:04.360Z,18.98
2022-10-09T19:27:32.785Z,13.93
2022-10-09T19:29:59.935Z,11.90
2022-10-09T19:32:27.245Z,14.02
2022-10-09T19:34:54.534Z,15.15
2022-10-09T19:37:26.009Z,22.27
2022-10-09T19:42:24.324Z,21.02
2022-10-09T19:44:51.434Z,22.33
2022-10-09T19:47:19.220Z,24.15
2022-10-09T19:49:46.329Z,22.48
2022-10-09T19:52:13.279Z,23.42
2022-10-09T19:54:40.378Z,21.73
2022-10-09T19:57:07.768Z,19.73
2022-10-09T19:59:34.920Z,20.02
2022-10-09T20:02:01.970Z,19.55
2022-10-09T20:04:28.935Z,19.38
2022-10-09T20:06:55.845Z,19.55
2022-10-09T20:09:23.001Z,17.30
2022-10-09T20:11:50.112Z,15.90
2022-10-09T20:14:17.200Z,15.98
2022-10-09T20:16:44.163Z,15.05
2022-10-09T20:19:12.804Z,12.85
2022-10-09T20:21:39.876Z,12.27
2022-10-09T20:24:06.901Z,12.95
2022-10-09T20:26:34.102Z,11.80
2022-10-09T20:29:01.247Z,11.88
2022-10-09T20:31:28.492Z,11.90
2022-10-09T20:33:55.949Z,12.77
2022-10-09T20:36:37.835Z,11.30
2022-10-09T20:39:11.933Z,10.65
2022-10-09T20:41:39.766Z,10.45
2022-10-09T20:44:08.373Z,10.25
2022-10-09T20:46:37.953Z,10.45
2022-10-09T20:49:06.910Z,10.40
2022-10-09T20:51:38.664Z,9.10
2022-10-09T20:54:07.306Z,8.63
2022-10-09T20:56:34.948Z,9.18
2022-10-09T20:59:02.149Z,9.93
2022-10-09T21:01:29.505Z,8.90
2022-10-09T21:03:57.610Z,8.43
2022-10-09T21:06:24.636Z,9.50
2022-10-09T21:08:51.880Z,9.88
2022-10-09T21:11:19.966Z,10.38
2022-10-09T21:13:47.822Z,10.07
2022-10-09T21:16:17.598Z,10.90
2022-10-09T21:18:44.653Z,10.05
2022-10-09T21:21:14.604Z,10.50
2022-10-09T21:23:41.976Z,10.65
2022-10-09T21:26:14.024Z,11.30
2022-10-09T21:28:41.677Z,10.27
2022-10-09T21:31:11.323Z,10.70
2022-10-09T21:33:38.443Z,10.45
2022-10-09T21:36:31.616Z,10.45
2022-10-09T21:38:58.823Z,10.18
2022-10-09T21:41:26.307Z,10.18
2022-10-09T21:43:53.248Z,10.55
2022-10-09T21:46:20.299Z,12.23
2022-10-09T21:48:47.501Z,11.40
2022-10-09T21:51:14.424Z,10.80
2022-10-09T21:53:41.514Z,11.13
2022-10-09T21:56:09.989Z,10.65
2022-10-09T21:58:38.868Z,11.38
2022-10-09T22:01:06.563Z,11.52
2022-10-09T22:03:36.030Z,11.30
2022-10-09T22:06:08.323Z,11.68
2022-10-09T22:08:35.582Z,13.20
2022-10-09T22:11:07.641Z,11.98
2022-10-09T22:13:36.146Z,12.52
2022-10-09T22:16:12.013Z,12.23
2022-10-09T22:18:39.900Z,12.40
2022-10-09T22:21:10.730Z,12.30
2022-10-09T22:23:38.139Z,12.95
2022-10-09T22:26:17.728Z,12.30
2022-10-09T22:28:48.830Z,14.60
2022-10-09T22:31:21.759Z,12.73
2022-10-09T22:34:06.867Z,13.20
2022-10-09T22:36:34.213Z,13.25
2022-10-09T22:39:04.794Z,13.00
2022-10-09T22:41:31.760Z,13.20
2022-10-09T22:44:00.665Z,13.15
2022-10-09T22:46:32.480Z,13.18
2022-10-09T22:49:00.506Z,13.48
2022-10-09T22:51:29.065Z,13.90
2022-10-09T22:53:57.898Z,13.20
2022-10-09T22:56:31.367Z,14.23
2022-10-09T22:58:58.767Z,14.35
2022-10-09T23:01:33.672Z,13.38
2022-10-09T23:04:03.855Z,12.80
2022-10-09T23:06:31.175Z,14.57
2022-10-09T23:08:58.947Z,14.38
2022-10-09T23:11:26.319Z,15.43
2022-10-09T23:13:58.400Z,14.02
2022-10-09T23:16:26.970Z,13.90
2022-10-09T23:18:54.363Z,12.82
2022-10-09T23:21:23.570Z,14.25
2022-10-09T23:23:51.620Z,13.70
2022-10-09T23:26:24.988Z,12.98
2022-10-09T23:28:54.465Z,15.13
2022-10-09T23:31:21.891Z,13.57
2022-10-09T23:33:49.144Z,12.25
2022-10-09T23:36:19.636Z,14.43
2022-10-09T23:38:46.894Z,12.43
2022-10-09T23:41:17.991Z,12.73
2022-10-09T23:43:45.406Z,12.75
2022-10-09T23:46:16.111Z,12.63
2022-10-09T23:48:44.191Z,12.65
2022-10-09T23:51:12.168Z,12.27
2022-10-09T23:53:39.352Z,12.82
2022-10-09T23:56:18.837Z,12.65
2022-10-09T23:58:45.804Z,12.88
